Mexico, Pennsylvania
Current Conditions -  °F | °C
As of 12:53 AM on Sunday 21 Dec 2014 (Local Time) from KSEG Reporting Station
Overcast Overcast  
Wind Chill: 26°   Ceiling: 2900
Heat Index: 31°   Visibility: 10mi
Dew Point: 22°   Wind: 5mph
Humidity: 69%   Direction: 300°WNW
Pressure: 30.28"   Gusts: NA
Location:  40.54°N, 77.35°W
Report Text: KSEG 210553Z AUTO 30004KT 10SM OVC029 M01/M06 A3028 RMK AO2 SLP259 T10061056 10006 21006 56004
Loading
Personal Weather Stations






























Interactive Weather Map New forecast layout! Learn more

10-Day Weather Forecast

Advertisements
Track Severe Weather on mobile